Time;durP1;ratioP1;P1;durP2;ratioP2;P2;SDS_P1;SDS_P2;PMS_P1;PMS_P2;Temp;Humidity;BMP_temperature;BMP_pressure;BME280_temperature;BME280_humidity;BME280_pressure;Samples;Min_cycle;Max_cycle;Signal;HPM_P1;HPM_P2
2022/06/23 00:01:00;;;;;;;4.30;2.95;;;27.30;56.50;;;;;;5053376;28;20049;-75
2022/06/23 00:03:32;;;;;;;4.47;2.72;;;26.80;57.00;;;;;;5053519;28;20029;-75
2022/06/23 00:06:00;;;;;;;5.13;3.67;;;26.70;57.50;;;;;;5054705;28;20056;-74
2022/06/23 00:08:27;;;;;;;4.82;3.15;;;26.90;57.50;;;;;;5054541;28;20123;-77
2022/06/23 00:11:00;;;;;;;5.72;3.13;;;27.40;57.30;;;;;;5056193;28;20021;-75
2022/06/23 00:13:34;;;;;;;7.47;3.40;;;27.40;57.20;;;;;;5053195;28;20032;-75
2022/06/23 00:16:01;;;;;;;4.63;3.28;;;27.50;56.80;;;;;;5054411;28;20033;-74
2022/06/23 00:18:33;;;;;;;5.60;3.10;;;27.70;56.50;;;;;;5053111;28;20053;-75
2022/06/23 00:21:17;;;;;;;4.43;2.70;;;27.70;56.70;;;;;;5053195;28;20417;-74
2022/06/23 00:23:47;;;;;;;5.93;2.85;;;27.70;54.40;;;;;;5054358;28;20071;-75
2022/06/23 00:26:26;;;;;;;4.00;2.80;;;27.80;55.20;;;;;;5054263;28;20032;-75
2022/06/23 00:29:03;;;;;;;7.10;2.72;;;27.90;54.60;;;;;;5053016;28;20032;-75
2022/06/23 00:31:52;;;;;;;4.18;2.90;;;27.60;54.30;;;;;;5056740;28;20025;-74
2022/06/23 00:34:42;;;;;;;4.10;2.70;;;27.60;54.90;;;;;;5074060;28;20025;-75
2022/06/23 00:37:16;;;;;;;6.95;3.05;;;27.60;54.30;;;;;;5073689;28;20032;-75
2022/06/23 00:39:48;;;;;;;5.50;2.90;;;27.80;54.70;;;;;;5074044;28;20372;-74
2022/06/23 00:42:29;;;;;;;4.82;2.75;;;28.00;54.50;;;;;;5053756;28;20037;-74
2022/06/23 00:44:58;;;;;;;3.75;3.00;;;28.20;53.70;;;;;;5053842;28;20025;-74
2022/06/23 00:47:56;;;;;;;4.18;2.85;;;28.40;53.60;;;;;;5066896;28;20371;-75
2022/06/23 00:50:41;;;;;;;4.35;2.63;;;28.30;53.80;;;;;;5066863;28;20120;-75
2022/06/23 00:53:12;;;;;;;5.63;2.60;;;28.20;53.60;;;;;;5052423;28;20025;-75
2022/06/23 00:55:44;;;;;;;4.90;2.60;;;28.10;52.40;;;;;;5053779;28;20387;-75
2022/06/23 00:58:30;;;;;;;5.93;2.97;;;28.00;52.60;;;;;;5053764;28;20024;-75
2022/06/23 01:01:05;;;;;;;4.85;2.63;;;28.10;52.80;;;;;;5051075;28;20511;-75
2022/06/23 01:03:39;;;;;;;5.93;2.85;;;28.10;53.20;;;;;;5052918;28;20028;-74
2022/06/23 01:06:22;;;;;;;3.72;2.80;;;28.00;53.30;;;;;;5065709;28;20055;-74
2022/06/23 01:08:59;;;;;;;4.97;3.10;;;28.00;53.40;;;;;;5063514;28;20488;-74
2022/06/23 01:11:41;;;;;;;4.50;2.92;;;27.90;53.80;;;;;;5053281;28;20041;-75
2022/06/23 01:14:30;;;;;;;4.35;3.00;;;27.80;53.60;;;;;;5053483;28;20420;-75
2022/06/23 01:17:05;;;;;;;4.65;2.85;;;27.80;53.70;;;;;;5051814;28;20027;-75
2022/06/23 01:19:40;;;;;;;4.60;3.10;;;27.80;53.70;;;;;;5052050;28;20048;-75
2022/06/23 01:22:19;;;;;;;3.92;2.83;;;27.80;53.70;;;;;;5053166;28;20036;-75
2022/06/23 01:24:57;;;;;;;4.57;2.63;;;27.80;53.80;;;;;;5051889;28;20025;-75
2022/06/23 01:27:44;;;;;;;5.82;2.95;;;27.60;54.60;;;;;;5071413;28;20036;-75
2022/06/23 01:30:12;;;;;;;4.40;3.10;;;27.30;55.10;;;;;;5073054;28;20039;-75
2022/06/23 01:32:43;;;;;;;7.47;3.17;;;27.50;55.10;;;;;;5072860;28;20012;-74
2022/06/23 01:35:16;;;;;;;4.50;3.00;;;27.60;55.10;;;;;;5070176;28;20024;-75
2022/06/23 01:37:49;;;;;;;4.45;3.17;;;27.50;55.20;;;;;;5052968;28;20021;-75
2022/06/23 01:40:22;;;;;;;4.07;2.78;;;27.30;55.40;;;;;;5052733;28;20028;-75
2022/06/23 01:43:06;;;;;;;8.27;3.10;;;27.30;53.90;;;;;;5051412;28;20028;-75
2022/06/23 01:45:51;;;;;;;4.93;3.05;;;27.40;53.40;;;;;;5054643;28;20013;-74
2022/06/23 01:48:52;;;;;;;5.43;2.97;;;27.40;54.10;;;;;;5071694;28;20025;-75
2022/06/23 01:51:30;;;;;;;4.05;2.90;;;27.50;54.40;;;;;;5071593;28;20032;-75
2022/06/23 01:54:22;;;;;;;5.03;3.17;;;27.40;52.20;;;;;;5056922;28;20021;-75
2022/06/23 01:57:08;;;;;;;5.20;2.50;;;27.30;54.10;;;;;;5054417;28;20115;-77
2022/06/23 01:59:55;;;;;;;3.80;2.50;;;26.90;53.30;;;;;;5058150;28;20025;-75
2022/06/23 02:02:50;;;;;;;4.10;2.55;;;26.70;54.00;;;;;;5071279;28;20059;-75
2022/06/23 02:05:28;;;;;;;5.28;2.63;;;26.80;53.70;;;;;;5065904;28;20431;-75
2022/06/23 02:08:17;;;;;;;3.72;2.60;;;26.90;53.20;;;;;;5071324;28;20027;-75
2022/06/23 02:11:13;;;;;;;4.03;2.80;;;26.80;53.20;;;;;;5053799;28;20168;-75
2022/06/23 02:14:11;;;;;;;5.60;2.70;;;26.90;52.30;;;;;;5053867;28;20029;-74
2022/06/23 02:16:53;;;;;;;4.00;2.70;;;26.90;52.40;;;;;;5052441;28;20021;-75
2022/06/23 02:19:24;;;;;;;4.82;2.60;;;27.00;52.90;;;;;;5054665;28;20020;-74
2022/06/23 02:22:11;;;;;;;3.63;2.58;;;26.80;52.60;;;;;;5072358;28;20048;-75
2022/06/23 02:24:43;;;;;;;4.90;2.70;;;26.90;52.70;;;;;;5072413;28;20021;-75
2022/06/23 02:27:31;;;;;;;4.93;2.50;;;27.00;52.80;;;;;;5062115;28;20029;-75
2022/06/23 02:30:06;;;;;;;5.03;2.60;;;26.90;52.30;;;;;;5053994;28;20434;-74
2022/06/23 02:32:40;;;;;;;4.72;2.42;;;26.90;52.50;;;;;;5052055;28;20029;-74
2022/06/23 02:35:06;;;;;;;3.08;2.28;;;27.20;52.10;;;;;;5051641;28;20025;-75
2022/06/23 02:37:50;;;;;;;3.83;2.60;;;27.30;51.50;;;;;;5070511;28;20043;-75
2022/06/23 02:40:32;;;;;;;4.38;2.38;;;27.50;51.20;;;;;;5075103;28;20047;-76
2022/06/23 02:43:31;;;;;;;4.35;2.40;;;27.60;51.00;;;;;;5062437;28;20029;-75
2022/06/23 02:46:02;;;;;;;4.43;2.50;;;27.70;50.90;;;;;;5056447;28;20446;-75
2022/06/23 02:48:40;;;;;;;3.53;2.55;;;27.60;50.70;;;;;;5056801;28;20036;-76
2022/06/23 02:51:09;;;;;;;4.43;2.30;;;27.50;51.80;;;;;;5056026;28;20159;-76
2022/06/23 02:53:43;;;;;;;3.58;2.30;;;27.20;51.60;;;;;;5054699;28;20033;-75
2022/06/23 02:56:32;;;;;;;3.80;2.30;;;27.20;51.30;;;;;;5056034;28;20029;-76
2022/06/23 02:59:32;;;;;;;3.70;2.30;;;27.20;50.70;;;;;;5057071;28;20475;-75
2022/06/23 03:02:11;;;;;;;4.82;2.20;;;27.10;50.30;;;;;;5055498;28;20049;-75
2022/06/23 03:05:13;;;;;;;3.97;2.20;;;26.90;51.20;;;;;;5054298;28;20502;-75
2022/06/23 03:07:47;;;;;;;7.53;2.65;;;26.70;50.60;;;;;;5058162;28;20036;-75
2022/06/23 03:10:25;;;;;;;3.20;2.10;;;26.70;50.80;;;;;;5055722;28;20025;-74
2022/06/23 03:12:59;;;;;;;7.00;2.38;;;26.90;50.30;;;;;;5055190;28;20033;-75
2022/06/23 03:15:31;;;;;;;3.83;2.35;;;27.10;50.30;;;;;;5054416;28;20021;-74
2022/06/23 03:18:34;;;;;;;4.53;2.33;;;27.10;50.80;;;;;;5053765;28;20036;-73
2022/06/23 03:21:23;;;;;;;4.78;2.17;;;27.00;51.30;;;;;;5072855;28;20033;-76
2022/06/23 03:23:49;;;;;;;3.53;2.30;;;26.90;50.80;;;;;;5056504;28;20072;-75
2022/06/23 03:26:29;;;;;;;3.50;2.30;;;26.90;50.90;;;;;;5073100;28;20052;-76
2022/06/23 03:29:12;;;;;;;3.95;2.20;;;26.90;50.20;;;;;;5072798;28;20044;-75
2022/06/23 03:32:02;;;;;;;3.20;2.30;;;27.00;50.40;;;;;;5073020;28;20024;-74
2022/06/23 03:34:49;;;;;;;7.00;2.60;;;26.80;50.50;;;;;;5072461;28;20032;-75
2022/06/23 03:37:42;;;;;;;7.03;2.40;;;27.00;51.10;;;;;;5056295;28;20047;-75
2022/06/23 03:43:36;;;;;;;4.65;2.47;;;27.10;51.30;;;;;;5053085;28;20087;-76
2022/06/23 03:46:05;;;;;;;3.65;2.28;;;27.20;51.30;;;;;;5036178;28;20111;-75
2022/06/23 03:48:57;;;;;;;4.43;2.40;;;26.70;51.70;;;;;;5052252;28;20041;-74
2022/06/23 03:51:38;;;;;;;3.47;2.35;;;26.50;52.20;;;;;;5055363;28;20052;-75
2022/06/23 03:54:12;;;;;;;6.05;2.92;;;26.50;53.10;;;;;;5053588;28;20024;-75
2022/06/23 03:56:50;;;;;;;5.88;2.40;;;26.60;53.40;;;;;;5053113;28;20037;-76
2022/06/23 03:59:23;;;;;;;4.40;2.50;;;26.80;53.10;;;;;;5054701;28;20036;-75
2022/06/23 04:01:53;;;;;;;3.83;2.60;;;26.60;53.30;;;;;;5054288;28;20183;-74
2022/06/23 04:04:22;;;;;;;4.75;2.67;;;26.70;53.40;;;;;;5054592;28;20021;-75
2022/06/23 04:06:49;;;;;;;4.35;2.45;;;26.90;53.20;;;;;;5053356;28;20357;-75
2022/06/23 04:09:21;;;;;;;4.78;2.22;;;27.10;52.30;;;;;;5061181;28;20025;-75
2022/06/23 04:12:11;;;;;;;4.60;2.60;;;27.10;52.40;;;;;;5064219;28;20017;-74
2022/06/23 04:14:37;;;;;;;3.80;2.50;;;26.90;52.00;;;;;;5060022;28;20428;-76
2022/06/23 04:17:45;;;;;;;4.78;2.45;;;27.10;52.10;;;;;;5061121;28;20528;-75
2022/06/23 04:20:15;;;;;;;4.63;2.50;;;27.30;51.70;;;;;;5052367;28;20131;-76
2022/06/23 04:22:44;;;;;;;4.90;2.30;;;27.30;51.10;;;;;;5071037;28;20024;-76
2022/06/23 04:25:19;;;;;;;5.80;2.40;;;27.50;51.20;;;;;;5053893;28;20163;-76
2022/06/23 04:27:50;;;;;;;3.35;2.17;;;27.70;50.60;;;;;;5052644;28;20032;-75
2022/06/23 04:30:25;;;;;;;3.50;2.25;;;27.80;49.60;;;;;;5050613;28;20033;-75
2022/06/23 04:32:52;;;;;;;3.50;2.20;;;28.00;49.80;;;;;;5052704;28;20419;-75
2022/06/23 04:35:36;;;;;;;3.20;2.22;;;28.10;49.90;;;;;;5051151;28;20490;-76
2022/06/23 04:38:04;;;;;;;4.65;2.33;;;28.20;49.30;;;;;;5051324;28;20454;-75
2022/06/23 04:40:43;;;;;;;2.95;2.00;;;28.20;49.70;;;;;;5051303;28;20056;-76
2022/06/23 04:43:26;;;;;;;3.90;2.30;;;28.20;49.50;;;;;;5052410;28;20033;-77
2022/06/23 04:46:23;;;;;;;3.20;2.10;;;28.00;49.20;;;;;;5053023;28;20231;-75
2022/06/23 04:48:55;;;;;;;3.33;2.22;;;27.80;48.90;;;;;;5049473;28;20025;-74
2022/06/23 04:51:38;;;;;;;7.32;2.30;;;27.80;50.40;;;;;;5050977;28;20098;-76
2022/06/23 04:54:14;;;;;;;3.85;2.20;;;28.00;48.80;;;;;;5070933;28;20546;-76
2022/06/23 04:56:42;;;;;;;4.00;2.25;;;28.30;48.70;;;;;;5065354;28;20067;-75
2022/06/23 04:59:38;;;;;;;4.15;2.10;;;28.50;49.00;;;;;;5063629;28;20415;-75
2022/06/23 05:02:31;;;;;;;5.10;2.30;;;28.70;47.80;;;;;;5054358;28;20047;-76
2022/06/23 05:05:19;;;;;;;2.83;1.90;;;28.90;46.80;;;;;;5052703;28;20044;-76
2022/06/23 05:07:45;;;;;;;4.15;2.40;;;29.10;47.70;;;;;;5055941;28;20040;-74
2022/06/23 05:10:23;;;;;;;5.22;2.17;;;29.30;48.00;;;;;;5052152;28;20025;-73
2022/06/23 05:13:02;;;;;;;5.10;2.30;;;29.10;47.50;;;;;;5053450;28;20033;-76
2022/06/23 05:15:42;;;;;;;4.45;2.17;;;29.00;47.10;;;;;;5056665;28;20047;-76
2022/06/23 05:18:15;;;;;;;3.20;1.90;;;29.10;46.80;;;;;;5073191;28;20039;-76
2022/06/23 05:20:49;;;;;;;5.20;2.28;;;29.10;48.40;;;;;;5067185;28;20029;-74
2022/06/23 05:23:20;;;;;;;4.13;1.92;;;29.20;47.00;;;;;;5051056;28;20021;-75
2022/06/23 05:25:48;;;;;;;3.00;1.95;;;29.20;47.10;;;;;;5053602;28;20028;-74
2022/06/23 05:28:24;;;;;;;3.40;2.00;;;29.30;47.10;;;;;;5071554;28;20404;-75
2022/06/23 05:30:59;;;;;;;3.58;2.10;;;29.50;47.70;;;;;;5072834;28;20395;-76
2022/06/23 05:33:33;;;;;;;3.25;2.00;;;29.30;48.20;;;;;;5056214;28;20029;-77
2022/06/23 05:36:05;;;;;;;3.92;2.00;;;28.70;48.50;;;;;;5066618;28;20028;-76
2022/06/23 05:38:36;;;;;;;4.45;2.13;;;28.40;48.80;;;;;;5066881;28;20029;-75
2022/06/23 05:41:07;;;;;;;;;;;28.50;49.30;;;;;;5052123;28;20526;-77
2022/06/23 05:43:39;;;;;;;4.70;2.28;;;28.80;47.90;;;;;;5052483;28;19905;-75
2022/06/23 05:46:06;;;;;;;6.75;2.28;;;28.90;48.90;;;;;;5050502;28;20456;-75
2022/06/23 05:48:42;;;;;;;4.57;2.10;;;29.20;47.90;;;;;;5053513;28;20049;-76
2022/06/23 05:51:16;;;;;;;3.25;2.10;;;29.70;47.00;;;;;;5051041;28;20052;-77
2022/06/23 05:54:00;;;;;;;3.97;2.10;;;29.60;47.10;;;;;;5052499;28;20013;-76
2022/06/23 05:56:38;;;;;;;4.97;2.20;;;29.60;46.90;;;;;;5044177;28;20078;-76
2022/06/23 05:59:14;;;;;;;5.03;2.22;;;29.70;46.60;;;;;;5060583;28;20405;-76
2022/06/23 06:01:43;;;;;;;4.43;2.20;;;30.00;46.20;;;;;;5051732;28;20052;-76
2022/06/23 06:04:17;;;;;;;3.67;2.10;;;30.40;46.30;;;;;;5051049;28;20036;-75
2022/06/23 06:06:45;;;;;;;3.42;2.10;;;30.80;45.70;;;;;;5049412;28;20029;-75
2022/06/23 06:12:01;;;;;;;6.75;2.50;;;30.80;45.40;;;;;;5048005;28;20544;-74
2022/06/23 06:14:30;;;;;;;6.00;2.00;;;30.80;44.90;;;;;;5051244;28;20440;-75
2022/06/23 06:16:57;;;;;;;4.63;2.10;;;30.80;45.10;;;;;;5052183;28;20479;-76
2022/06/23 06:19:25;;;;;;;3.85;2.13;;;30.80;45.80;;;;;;5051217;28;20025;-75
2022/06/23 06:21:57;;;;;;;3.55;2.10;;;31.00;45.90;;;;;;5049081;28;20047;-74
2022/06/23 06:24:35;;;;;;;3.67;2.30;;;31.20;45.60;;;;;;5049268;28;20059;-75
2022/06/23 06:27:03;;;;;;;4.85;1.92;;;31.10;45.40;;;;;;5052100;28;20426;-76
2022/06/23 06:29:37;;;;;;;3.88;2.10;;;31.20;45.20;;;;;;5051022;28;20099;-76
2022/06/23 06:32:27;;;;;;;3.63;2.05;;;31.00;46.30;;;;;;5050871;28;20067;-75
2022/06/23 06:35:33;;;;;;;4.10;2.10;;;30.60;47.50;;;;;;5051988;28;20067;-77
2022/06/23 06:38:04;;;;;;;4.68;2.10;;;30.30;47.00;;;;;;5057481;28;20387;-76
2022/06/23 06:40:31;;;;;;;3.90;2.10;;;29.70;47.20;;;;;;5051184;28;20044;-76
2022/06/23 06:43:04;;;;;;;3.63;2.03;;;29.70;46.70;;;;;;5059004;28;20522;-78
2022/06/23 06:45:34;;;;;;;3.83;2.20;;;29.80;46.40;;;;;;5049176;28;20559;-76
2022/06/23 06:48:01;;;;;;;18.02;2.72;;;29.30;45.60;;;;;;5052474;28;20025;-76
2022/06/23 06:50:44;;;;;;;3.40;2.10;;;29.70;46.30;;;;;;5051867;28;20021;-77
2022/06/23 06:53:43;;;;;;;4.30;2.20;;;29.70;45.40;;;;;;5052331;28;20446;-77
2022/06/23 06:56:18;;;;;;;5.53;2.10;;;30.20;45.40;;;;;;4698914;28;9999748;-76
2022/06/23 06:58:51;;;;;;;4.32;2.40;;;30.50;45.60;;;;;;5047682;28;20390;-76
2022/06/23 07:01:23;;;;;;;4.65;2.13;;;30.70;45.50;;;;;;5047746;28;20053;-79
2022/06/23 07:03:52;;;;;;;4.65;2.20;;;30.40;43.90;;;;;;5048681;28;20032;-75
2022/06/23 07:06:28;;;;;;;3.67;2.20;;;30.30;45.60;;;;;;5047024;28;20021;-77
2022/06/23 07:09:06;;;;;;;6.25;2.42;;;30.40;45.50;;;;;;5048075;28;20091;-75
2022/06/23 07:11:58;;;;;;;6.43;2.17;;;30.80;45.60;;;;;;5048306;28;20068;-74
2022/06/23 07:14:54;;;;;;;4.88;2.33;;;31.00;45.00;;;;;;5047243;28;20021;-74
2022/06/23 07:17:29;;;;;;;4.25;2.40;;;31.10;43.90;;;;;;5047483;28;20049;-78
2022/06/23 07:20:02;;;;;;;4.70;2.10;;;31.00;44.60;;;;;;5045962;28;20025;-75
2022/06/23 07:22:37;;;;;;;9.00;2.35;;;30.90;45.60;;;;;;5049220;28;20688;-83
2022/06/23 07:25:03;;;;;;;4.63;2.10;;;31.10;44.30;;;;;;5050396;28;20029;-75
2022/06/23 07:28:02;;;;;;;4.50;2.08;;;30.80;44.30;;;;;;5059522;28;20111;-74
2022/06/23 07:30:37;;;;;;;3.42;1.90;;;30.70;43.40;;;;;;5064800;28;20059;-75
2022/06/23 07:33:03;;;;;;;4.43;2.13;;;30.80;44.40;;;;;;5069241;28;20020;-76
2022/06/23 07:35:39;;;;;;;5.28;2.00;;;31.10;45.10;;;;;;5048563;28;20036;-76
2022/06/23 07:38:29;;;;;;;4.45;2.10;;;31.30;43.10;;;;;;5056909;28;20114;-77
2022/06/23 07:41:27;;;;;;;5.03;2.03;;;31.60;44.70;;;;;;5059374;28;20052;-76
2022/06/23 07:43:58;;;;;;;6.90;2.13;;;31.50;44.30;;;;;;5054820;28;20068;-74
2022/06/23 07:46:24;;;;;;;4.35;2.10;;;31.60;44.70;;;;;;5062668;28;20076;-75
2022/06/23 07:48:49;;;;;;;4.63;2.17;;;31.60;44.40;;;;;;5052693;28;20322;-78
2022/06/23 07:51:17;;;;;;;3.20;2.20;;;31.40;42.60;;;;;;5048701;28;20017;-77
2022/06/23 07:53:49;;;;;;;4.35;2.10;;;31.20;43.50;;;;;;5049641;28;20091;-76
2022/06/23 07:56:21;;;;;;;3.85;2.05;;;31.40;43.70;;;;;;5053924;28;20036;-77
2022/06/23 07:58:55;;;;;;;3.58;2.30;;;31.60;43.90;;;;;;4700963;28;9999845;-77
2022/06/23 08:01:28;;;;;;;4.65;2.00;;;31.70;43.10;;;;;;5050005;28;20055;-77
2022/06/23 08:04:03;;;;;;;3.45;1.80;;;31.50;42.40;;;;;;5051520;28;20044;-78
2022/06/23 08:06:31;;;;;;;4.55;2.00;;;31.10;43.60;;;;;;5052681;28;20040;-80
2022/06/23 08:09:03;;;;;;;3.95;2.00;;;31.00;43.60;;;;;;5051074;28;20025;-75
2022/06/23 08:14:34;;;;;;;5.20;2.13;;;31.40;42.80;;;;;;5053851;28;20451;-77
2022/06/23 08:17:06;;;;;;;5.22;2.08;;;31.80;43.80;;;;;;5054426;28;20020;-76
2022/06/23 08:19:55;;;;;;;4.85;2.10;;;32.20;43.50;;;;;;5054620;28;20406;-78
2022/06/23 08:22:27;;;;;;;3.55;2.10;;;32.10;42.90;;;;;;5054122;28;20033;-76
2022/06/23 08:24:57;;;;;;;3.15;1.90;;;32.20;41.60;;;;;;5058209;28;20485;-77
2022/06/23 08:27:28;;;;;;;7.85;2.00;;;32.30;42.60;;;;;;5053919;28;20030;-76
2022/06/23 08:30:10;;;;;;;3.70;2.08;;;32.30;43.70;;;;;;5055559;28;20118;-77
2022/06/23 08:32:38;;;;;;;3.92;2.15;;;32.50;42.30;;;;;;5054469;28;20032;-79
2022/06/23 08:35:07;;;;;;;3.75;1.80;;;31.10;40.90;;;;;;5054647;28;20021;-82
2022/06/23 08:37:51;;;;;;;3.55;1.92;;;29.90;41.90;;;;;;5050604;28;20052;-79
2022/06/23 08:40:20;;;;;;;4.88;1.90;;;29.50;43.10;;;;;;5051728;28;20021;-77
2022/06/23 08:43:12;;;;;;;2.95;1.92;;;30.40;42.80;;;;;;5058699;28;20100;-76
2022/06/23 08:46:12;;;;;;;2.95;1.80;;;31.30;41.00;;;;;;5056321;28;20033;-75
2022/06/23 08:48:40;;;;;;;3.30;1.83;;;32.00;41.60;;;;;;5069128;28;20547;-84
2022/06/23 08:51:17;;;;;;;3.33;1.90;;;31.40;40.30;;;;;;5054335;28;20159;-79
2022/06/23 08:53:51;;;;;;;3.45;1.90;;;30.60;42.30;;;;;;5052436;28;20029;-77
2022/06/23 08:56:27;;;;;;;3.88;2.00;;;31.00;43.30;;;;;;5056600;28;20025;-79
2022/06/23 08:58:53;;;;;;;4.10;1.92;;;30.90;42.60;;;;;;5047925;28;20383;-79
2022/06/23 09:01:26;;;;;;;3.92;1.90;;;31.50;43.90;;;;;;5048273;28;20505;-76
2022/06/23 09:03:58;;;;;;;5.13;2.10;;;32.00;41.20;;;;;;5050205;28;20028;-74
2022/06/23 09:06:50;;;;;;;3.78;1.90;;;32.60;41.30;;;;;;5053864;28;20059;-76
2022/06/23 09:09:38;;;;;;;3.47;1.90;;;32.90;41.00;;;;;;5063651;28;20027;-77
2022/06/23 09:12:33;;;;;;;5.25;1.80;;;33.20;42.60;;;;;;5058573;28;20506;-79
2022/06/23 09:15:37;;;;;;;3.58;1.88;;;33.30;41.50;;;;;;4973307;28;20030;-80
2022/06/23 09:18:11;;;;;;;3.40;1.80;;;33.00;41.20;;;;;;4972147;28;20043;-79
2022/06/23 09:20:57;;;;;;;3.95;1.95;;;33.00;41.00;;;;;;4972854;28;20390;-79
2022/06/23 09:24:03;;;;;;;4.10;2.00;;;33.10;41.60;;;;;;4896757;29;20047;-75
2022/06/23 09:26:40;;;;;;;4.65;1.90;;;33.30;41.30;;;;;;4896417;29;20040;-80
2022/06/23 09:29:35;;;;;;;3.38;1.90;;;33.50;42.20;;;;;;4896334;29;20080;-79
2022/06/23 09:32:12;;;;;;;4.35;2.03;;;32.80;39.70;;;;;;4896073;29;20147;-81
2022/06/23 09:35:12;;;;;;;3.58;1.83;;;33.00;41.20;;;;;;4896008;29;20045;-77
2022/06/23 09:37:59;;;;;;;3.97;2.00;;;33.10;39.70;;;;;;4896380;29;20036;-78
2022/06/23 09:40:39;;;;;;;7.03;1.95;;;33.30;40.80;;;;;;4895936;29;20067;-77
2022/06/23 09:43:16;;;;;;;7.15;2.10;;;33.50;40.00;;;;;;4896376;29;20504;-76
2022/06/23 09:45:59;;;;;;;3.55;2.20;;;33.80;41.50;;;;;;4896173;29;20041;-77
2022/06/23 09:48:43;;;;;;;3.75;1.90;;;33.80;41.20;;;;;;4895545;29;20550;-79
2022/06/23 09:51:23;;;;;;;3.85;1.70;;;34.30;41.70;;;;;;4906503;29;20502;-79
2022/06/23 09:54:17;;;;;;;3.28;1.92;;;34.40;40.90;;;;;;4953767;29;20039;-79
2022/06/23 09:57:00;;;;;;;6.10;2.03;;;34.40;40.80;;;;;;4595050;28;10000296;-77
2022/06/23 09:59:29;;;;;;;3.10;1.90;;;34.00;39.10;;;;;;4957049;28;20402;-79
2022/06/23 10:02:04;;;;;;;3.60;2.20;;;33.70;39.80;;;;;;5032494;28;20075;-77
2022/06/23 10:04:48;;;;;;;3.97;2.00;;;34.00;40.70;;;;;;5050729;28;20024;-78
2022/06/23 10:07:49;;;;;;;5.68;1.80;;;34.30;41.00;;;;;;5046623;28;20021;-78
2022/06/23 10:10:52;;;;;;;3.38;1.90;;;34.30;41.00;;;;;;5050512;28;20025;-78
2022/06/23 10:13:36;;;;;;;4.80;2.00;;;34.50;40.60;;;;;;5049491;28;20522;-75
2022/06/23 10:16:05;;;;;;;3.42;2.00;;;34.60;40.50;;;;;;5048589;28;20116;-75
2022/06/23 10:18:45;;;;;;;5.20;2.00;;;34.50;40.10;;;;;;5051073;28;20021;-76
2022/06/23 10:21:35;;;;;;;5.43;2.25;;;34.50;39.90;;;;;;5050559;28;20115;-77
2022/06/23 10:24:14;;;;;;;3.13;1.90;;;34.40;40.30;;;;;;5048567;28;20033;-78
2022/06/23 10:27:13;;;;;;;11.15;3.03;;;34.10;40.80;;;;;;5048520;28;20527;-75
2022/06/23 10:29:56;;;;;;;3.65;1.90;;;34.00;41.20;;;;;;5051011;28;20144;-82
2022/06/23 10:32:31;;;;;;;3.15;1.90;;;34.00;39.70;;;;;;5051678;28;20074;-82
2022/06/23 10:35:24;;;;;;;3.40;1.90;;;33.50;40.00;;;;;;5051246;28;20064;-77
2022/06/23 10:38:08;;;;;;;4.00;2.00;;;33.00;42.20;;;;;;5051391;28;20025;-78
2022/06/23 10:40:57;;;;;;;3.53;2.10;;;33.30;42.50;;;;;;5041790;28;20423;-78
2022/06/23 10:43:44;;;;;;;4.35;2.03;;;33.90;43.20;;;;;;5048700;28;20025;-78
2022/06/23 10:46:38;;;;;;;3.45;2.00;;;34.10;41.00;;;;;;5050260;28;20033;-78
2022/06/23 10:49:16;;;;;;;4.30;1.90;;;34.00;39.00;;;;;;5048791;28;20140;-77
2022/06/23 10:51:57;;;;;;;4.15;1.80;;;33.70;40.50;;;;;;5049240;28;20147;-77
2022/06/23 10:54:29;;;;;;;5.38;2.05;;;33.70;41.00;;;;;;5051510;28;20017;-77
2022/06/23 10:57:31;;;;;;;3.22;1.90;;;33.90;41.60;;;;;;5051617;28;20025;-78
2022/06/23 10:59:56;;;;;;;4.15;2.05;;;34.00;41.50;;;;;;5053109;28;20032;-78
2022/06/23 11:02:40;;;;;;;4.43;2.30;;;34.10;39.70;;;;;;5055086;28;20053;-80
2022/06/23 11:05:28;;;;;;;3.38;1.92;;;34.20;40.70;;;;;;5055461;28;20025;-81
2022/06/23 11:08:19;;;;;;;6.03;1.98;;;33.50;41.50;;;;;;5056319;28;20024;-80
2022/06/23 11:11:03;;;;;;;6.63;2.40;;;33.00;42.90;;;;;;4702481;28;10000445;-75
2022/06/23 11:13:40;;;;;;;6.18;2.00;;;33.30;42.70;;;;;;5050178;28;20036;-73
2022/06/23 11:16:15;;;;;;;5.97;2.10;;;33.30;40.70;;;;;;5048525;28;20037;-74
2022/06/23 11:18:52;;;;;;;3.90;2.20;;;33.30;40.90;;;;;;5048674;28;20538;-78
2022/06/23 11:21:44;;;;;;;3.60;1.95;;;33.30;43.00;;;;;;5049794;28;20095;-76
2022/06/23 11:24:17;;;;;;;3.20;1.80;;;33.60;42.00;;;;;;5050706;28;20130;-75
2022/06/23 11:27:04;;;;;;;7.57;2.15;;;33.80;40.50;;;;;;5051712;28;20029;-75
2022/06/23 11:30:04;;;;;;;5.85;2.10;;;34.10;41.50;;;;;;5032036;28;20496;-76
2022/06/23 11:32:51;;;;;;;5.93;2.25;;;34.10;41.80;;;;;;5049528;28;20026;-76
2022/06/23 11:35:41;;;;;;;5.32;3.72;;;34.00;41.30;;;;;;5033799;28;20055;-76
2022/06/23 11:38:36;;;;;;;3.13;2.00;;;33.80;42.10;;;;;;5051968;28;20029;-77
2022/06/23 11:41:26;;;;;;;4.68;2.00;;;33.30;40.80;;;;;;5049737;28;20083;-77
2022/06/23 11:44:04;;;;;;;3.75;1.90;;;33.40;43.00;;;;;;5051620;28;20040;-78
2022/06/23 11:46:35;;;;;;;4.38;2.08;;;33.50;42.10;;;;;;5053760;28;20029;-82
2022/06/23 11:49:25;;;;;;;2.95;1.90;;;33.80;43.60;;;;;;5053930;28;20021;-77
2022/06/23 11:51:55;;;;;;;4.28;1.98;;;34.20;43.20;;;;;;5052512;28;20033;-79
2022/06/23 11:54:54;;;;;;;3.90;1.90;;;34.30;43.00;;;;;;4686142;28;10000333;-78
2022/06/23 11:57:26;;;;;;;3.72;1.60;;;34.60;43.20;;;;;;5032787;28;20036;-82
2022/06/23 11:59:57;;;;;;;6.03;2.15;;;34.70;41.70;;;;;;5034004;28;20024;-79
2022/06/23 12:02:23;;;;;;;4.50;2.00;;;34.80;41.90;;;;;;5034985;28;20045;-81
2022/06/23 12:05:00;;;;;;;2.95;2.03;;;34.40;40.30;;;;;;5033887;28;20029;-78
2022/06/23 12:07:51;;;;;;;6.18;1.80;;;34.10;38.70;;;;;;5034178;28;20164;-81
2022/06/23 12:10:25;;;;;;;4.07;1.80;;;33.70;40.30;;;;;;5035114;28;20383;-82
2022/06/23 12:12:54;;;;;;;3.10;1.73;;;33.70;40.50;;;;;;5035623;28;20049;-82
2022/06/23 12:15:25;;;;;;;4.70;2.00;;;32.90;41.30;;;;;;5035247;28;20037;-79
2022/06/23 12:18:19;;;;;;;3.50;1.80;;;32.80;41.40;;;;;;5035044;28;20022;-79
2022/06/23 12:20:50;;;;;;;3.47;1.90;;;33.00;41.30;;;;;;5035385;28;20044;-80
2022/06/23 12:23:23;;;;;;;4.82;2.05;;;33.10;40.60;;;;;;5034656;28;20033;-79
2022/06/23 12:26:24;;;;;;;3.50;1.90;;;33.10;40.30;;;;;;5035293;28;20039;-80
2022/06/23 12:29:14;;;;;;;3.67;2.25;;;33.30;39.10;;;;;;5034645;28;20030;-81
2022/06/23 12:31:45;;;;;;;;;;;33.20;38.40;;;;;;5035281;28;20040;-81
2022/06/23 12:34:18;;;;;;;8.23;3.22;;;32.90;38.00;;;;;;5034913;28;19912;-76
2022/06/23 12:37:02;;;;;;;3.83;1.90;;;33.40;38.40;;;;;;5033598;28;20022;-81
2022/06/23 12:39:44;;;;;;;3.40;1.95;;;34.00;38.20;;;;;;5034450;28;20601;-83
2022/06/23 12:42:34;;;;;;;3.55;1.75;;;34.00;38.10;;;;;;5034635;28;20029;-82
2022/06/23 12:45:21;;;;;;;3.20;1.70;;;33.60;38.00;;;;;;5034907;28;20030;-82
2022/06/23 12:48:15;;;;;;;4.35;1.77;;;33.60;39.00;;;;;;5033028;28;20385;-78
2022/06/23 12:50:40;;;;;;;3.30;1.83;;;33.60;37.90;;;;;;5033861;28;20045;-79
2022/06/23 12:53:43;;;;;;;3.83;1.90;;;33.60;38.30;;;;;;5032834;28;20013;-80
2022/06/23 12:56:44;;;;;;;5.18;1.80;;;33.50;38.30;;;;;;5032164;28;20023;-79
2022/06/23 12:59:36;;;;;;;4.22;1.80;;;33.70;38.80;;;;;;5032690;28;20429;-83
2022/06/23 13:02:47;;;;;;;3.30;1.90;;;34.00;38.60;;;;;;5032428;28;20132;-81
2022/06/23 13:05:19;;;;;;;4.95;1.90;;;34.30;38.60;;;;;;5033004;28;20025;-77
2022/06/23 13:07:58;;;;;;;4.50;1.67;;;34.50;39.70;;;;;;5033005;28;20080;-80
2022/06/23 13:10:36;;;;;;;2.97;1.70;;;34.40;38.80;;;;;;5034445;28;20468;-81
2022/06/23 13:13:10;;;;;;;3.40;1.80;;;33.80;39.00;;;;;;5034338;28;20022;-80
2022/06/23 13:15:39;;;;;;;3.00;1.77;;;33.70;39.20;;;;;;5034261;28;20105;-82
2022/06/23 13:18:10;;;;;;;3.65;1.80;;;33.60;38.20;;;;;;5033224;28;20022;-81
2022/06/23 13:20:56;;;;;;;3.88;1.90;;;33.70;39.30;;;;;;5034267;28;20039;-80
2022/06/23 13:23:37;;;;;;;3.88;1.90;;;33.90;38.60;;;;;;5033935;28;20112;-80
2022/06/23 13:26:16;;;;;;;4.38;2.13;;;34.30;38.10;;;;;;5033886;28;20497;-81
2022/06/23 13:28:44;;;;;;;3.40;1.88;;;34.00;38.10;;;;;;5033996;28;20109;-80
2022/06/23 13:31:22;;;;;;;3.17;1.80;;;33.00;38.20;;;;;;5033687;28;20026;-80
2022/06/23 13:34:00;;;;;;;3.97;1.80;;;33.10;38.80;;;;;;5032416;28;20037;-79
2022/06/23 13:36:52;;;;;;;6.53;1.85;;;33.00;38.70;;;;;;5032515;28;20384;-79
2022/06/23 13:39:46;;;;;;;3.60;1.75;;;32.80;39.20;;;;;;5033704;28;20022;-81
2022/06/23 13:42:27;;;;;;;4.20;2.00;;;33.00;39.30;;;;;;5033330;28;20034;-79
2022/06/23 13:45:04;;;;;;;3.13;1.92;;;33.70;39.40;;;;;;5033718;28;20022;-82
2022/06/23 13:47:56;;;;;;;3.90;2.00;;;34.00;38.90;;;;;;5033201;28;20392;-80
2022/06/23 13:50:37;;;;;;;3.85;1.90;;;34.00;37.80;;;;;;4922048;28;10000339;-78
2022/06/23 13:53:16;;;;;;;3.60;2.00;;;33.80;38.00;;;;;;4700907;28;9999645;-79
2022/06/23 13:55:51;;;;;;;2.83;1.90;;;33.50;38.30;;;;;;5052794;28;20048;-79
2022/06/23 13:58:31;;;;;;;4.28;1.90;;;33.90;38.80;;;;;;5052728;28;20021;-80